sensor_id;sensor_type;location;lat;lon;timestamp;P1;durP1;ratioP1;P2;durP2;ratioP2
56267;SDS011;42175;46.930;9.532;2023-03-19T00:02:04;5.38;;;2.80;;
56267;SDS011;42175;46.930;9.532;2023-03-19T00:04:31;4.43;;;2.78;;
56267;SDS011;42175;46.930;9.532;2023-03-19T00:06:57;5.80;;;2.40;;
56267;SDS011;42175;46.930;9.532;2023-03-19T00:09:23;5.63;;;2.75;;
56267;SDS011;42175;46.930;9.532;2023-03-19T00:11:48;5.18;;;2.35;;
56267;SDS011;42175;46.930;9.532;2023-03-19T00:14:14;5.18;;;2.65;;
56267;SDS011;42175;46.930;9.532;2023-03-19T00:16:41;3.83;;;2.63;;
56267;SDS011;42175;46.930;9.532;2023-03-19T00:19:07;3.90;;;2.50;;
56267;SDS011;42175;46.930;9.532;2023-03-19T00:21:34;3.88;;;2.58;;
56267;SDS011;42175;46.930;9.532;2023-03-19T00:24:00;4.43;;;3.28;;
56267;SDS011;42175;46.930;9.532;2023-03-19T00:26:27;6.93;;;2.88;;
56267;SDS011;42175;46.930;9.532;2023-03-19T00:28:54;6.72;;;2.97;;
56267;SDS011;42175;46.930;9.532;2023-03-19T00:31:20;4.68;;;2.63;;
56267;SDS011;42175;46.930;9.532;2023-03-19T00:33:47;6.00;;;2.65;;
56267;SDS011;42175;46.930;9.532;2023-03-19T00:36:13;5.38;;;2.40;;
56267;SDS011;42175;46.930;9.532;2023-03-19T00:38:40;5.38;;;2.88;;
56267;SDS011;42175;46.930;9.532;2023-03-19T00:41:07;6.45;;;2.80;;
56267;SDS011;42175;46.930;9.532;2023-03-19T00:43:33;6.63;;;3.13;;
56267;SDS011;42175;46.930;9.532;2023-03-19T00:45:59;4.13;;;3.20;;
56267;SDS011;42175;46.930;9.532;2023-03-19T00:48:25;5.40;;;3.45;;
56267;SDS011;42175;46.930;9.532;2023-03-19T00:50:51;5.53;;;3.22;;
56267;SDS011;42175;46.930;9.532;2023-03-19T00:53:17;4.68;;;2.60;;
56267;SDS011;42175;46.930;9.532;2023-03-19T00:55:43;6.20;;;3.33;;
56267;SDS011;42175;46.930;9.532;2023-03-19T00:58:08;4.32;;;2.92;;
56267;SDS011;42175;46.930;9.532;2023-03-19T01:00:35;6.07;;;3.35;;
56267;SDS011;42175;46.930;9.532;2023-03-19T01:03:01;6.93;;;3.72;;
56267;SDS011;42175;46.930;9.532;2023-03-19T01:05:28;4.63;;;3.10;;
56267;SDS011;42175;46.930;9.532;2023-03-19T01:07:54;7.00;;;2.95;;
56267;SDS011;42175;46.930;9.532;2023-03-19T01:10:20;4.25;;;2.85;;
56267;SDS011;42175;46.930;9.532;2023-03-19T01:12:47;4.78;;;3.17;;
56267;SDS011;42175;46.930;9.532;2023-03-19T01:15:14;5.43;;;4.22;;
56267;SDS011;42175;46.930;9.532;2023-03-19T01:17:40;6.05;;;3.55;;
56267;SDS011;42175;46.930;9.532;2023-03-19T01:20:06;7.43;;;4.90;;
56267;SDS011;42175;46.930;9.532;2023-03-19T01:22:37;5.78;;;4.57;;
56267;SDS011;42175;46.930;9.532;2023-03-19T01:25:08;7.97;;;4.47;;
56267;SDS011;42175;46.930;9.532;2023-03-19T01:27:36;7.82;;;4.50;;
56267;SDS011;42175;46.930;9.532;2023-03-19T01:30:02;6.05;;;4.50;;
56267;SDS011;42175;46.930;9.532;2023-03-19T01:32:28;8.65;;;5.10;;
56267;SDS011;42175;46.930;9.532;2023-03-19T01:34:54;4.28;;;3.47;;
56267;SDS011;42175;46.930;9.532;2023-03-19T01:37:20;8.00;;;4.10;;
56267;SDS011;42175;46.930;9.532;2023-03-19T01:39:45;5.35;;;3.25;;
56267;SDS011;42175;46.930;9.532;2023-03-19T01:42:11;6.10;;;3.25;;
56267;SDS011;42175;46.930;9.532;2023-03-19T01:44:38;6.45;;;2.90;;
56267;SDS011;42175;46.930;9.532;2023-03-19T01:47:05;5.85;;;3.53;;
56267;SDS011;42175;46.930;9.532;2023-03-19T01:49:53;5.28;;;3.22;;
56267;SDS011;42175;46.930;9.532;2023-03-19T01:52:21;6.15;;;3.45;;
56267;SDS011;42175;46.930;9.532;2023-03-19T01:54:49;3.63;;;2.88;;
56267;SDS011;42175;46.930;9.532;2023-03-19T01:57:16;3.35;;;2.70;;
56267;SDS011;42175;46.930;9.532;2023-03-19T01:59:50;5.32;;;2.63;;
56267;SDS011;42175;46.930;9.532;2023-03-19T02:02:28;3.15;;;2.40;;
56267;SDS011;42175;46.930;9.532;2023-03-19T02:04:59;3.47;;;2.83;;
56267;SDS011;42175;46.930;9.532;2023-03-19T02:07:36;5.05;;;3.00;;
56267;SDS011;42175;46.930;9.532;2023-03-19T02:10:07;5.10;;;2.83;;
56267;SDS011;42175;46.930;9.532;2023-03-19T02:12:35;4.38;;;2.63;;
56267;SDS011;42175;46.930;9.532;2023-03-19T02:15:01;4.65;;;2.90;;
56267;SDS011;42175;46.930;9.532;2023-03-19T02:17:27;4.70;;;3.28;;
56267;SDS011;42175;46.930;9.532;2023-03-19T02:19:57;4.72;;;3.15;;
56267;SDS011;42175;46.930;9.532;2023-03-19T02:22:38;5.30;;;2.80;;
56267;SDS011;42175;46.930;9.532;2023-03-19T02:25:12;4.65;;;2.55;;
56267;SDS011;42175;46.930;9.532;2023-03-19T02:28:01;4.95;;;3.13;;
56267;SDS011;42175;46.930;9.532;2023-03-19T02:30:29;6.07;;;3.50;;
56267;SDS011;42175;46.930;9.532;2023-03-19T02:32:57;4.45;;;2.58;;
56267;SDS011;42175;46.930;9.532;2023-03-19T02:35:22;4.45;;;2.83;;
56267;SDS011;42175;46.930;9.532;2023-03-19T02:37:48;5.18;;;2.50;;
56267;SDS011;42175;46.930;9.532;2023-03-19T02:40:21;4.05;;;2.70;;
56267;SDS011;42175;46.930;9.532;2023-03-19T02:42:51;4.35;;;2.78;;
56267;SDS011;42175;46.930;9.532;2023-03-19T02:45:17;4.43;;;2.50;;
56267;SDS011;42175;46.930;9.532;2023-03-19T02:47:42;3.33;;;2.40;;
56267;SDS011;42175;46.930;9.532;2023-03-19T02:50:08;3.40;;;2.70;;
56267;SDS011;42175;46.930;9.532;2023-03-19T02:52:34;6.25;;;2.83;;
56267;SDS011;42175;46.930;9.532;2023-03-19T02:55:00;4.68;;;2.90;;
56267;SDS011;42175;46.930;9.532;2023-03-19T02:57:26;6.13;;;2.58;;
56267;SDS011;42175;46.930;9.532;2023-03-19T02:59:52;4.60;;;2.50;;
56267;SDS011;42175;46.930;9.532;2023-03-19T03:02:18;5.15;;;3.10;;
56267;SDS011;42175;46.930;9.532;2023-03-19T03:04:44;4.95;;;3.47;;
56267;SDS011;42175;46.930;9.532;2023-03-19T03:07:10;3.72;;;3.10;;
56267;SDS011;42175;46.930;9.532;2023-03-19T03:09:37;5.60;;;3.33;;
56267;SDS011;42175;46.930;9.532;2023-03-19T03:12:02;5.32;;;3.05;;
56267;SDS011;42175;46.930;9.532;2023-03-19T03:14:28;4.68;;;3.13;;
56267;SDS011;42175;46.930;9.532;2023-03-19T03:16:54;4.53;;;3.05;;
56267;SDS011;42175;46.930;9.532;2023-03-19T03:19:21;4.15;;;2.75;;
56267;SDS011;42175;46.930;9.532;2023-03-19T03:21:47;5.60;;;2.72;;
56267;SDS011;42175;46.930;9.532;2023-03-19T03:24:13;4.88;;;2.70;;
56267;SDS011;42175;46.930;9.532;2023-03-19T03:26:39;3.53;;;2.15;;
56267;SDS011;42175;46.930;9.532;2023-03-19T03:29:05;3.70;;;2.60;;
56267;SDS011;42175;46.930;9.532;2023-03-19T03:31:31;3.92;;;2.63;;
56267;SDS011;42175;46.930;9.532;2023-03-19T03:33:57;4.55;;;2.95;;
56267;SDS011;42175;46.930;9.532;2023-03-19T03:36:23;4.65;;;3.05;;
56267;SDS011;42175;46.930;9.532;2023-03-19T03:38:49;5.35;;;2.60;;
56267;SDS011;42175;46.930;9.532;2023-03-19T03:41:15;4.25;;;2.20;;
56267;SDS011;42175;46.930;9.532;2023-03-19T03:43:40;3.00;;;2.55;;
56267;SDS011;42175;46.930;9.532;2023-03-19T03:46:06;3.83;;;2.95;;
56267;SDS011;42175;46.930;9.532;2023-03-19T03:48:32;3.50;;;2.35;;
56267;SDS011;42175;46.930;9.532;2023-03-19T03:50:58;3.20;;;2.47;;
56267;SDS011;42175;46.930;9.532;2023-03-19T03:53:24;4.18;;;2.47;;
56267;SDS011;42175;46.930;9.532;2023-03-19T03:55:50;4.30;;;2.75;;
56267;SDS011;42175;46.930;9.532;2023-03-19T03:58:16;3.47;;;2.38;;
56267;SDS011;42175;46.930;9.532;2023-03-19T04:00:42;3.45;;;2.35;;
56267;SDS011;42175;46.930;9.532;2023-03-19T04:03:07;4.00;;;2.20;;
56267;SDS011;42175;46.930;9.532;2023-03-19T04:05:34;3.88;;;2.40;;
56267;SDS011;42175;46.930;9.532;2023-03-19T04:08:01;5.03;;;3.05;;
56267;SDS011;42175;46.930;9.532;2023-03-19T04:10:28;4.50;;;2.70;;
56267;SDS011;42175;46.930;9.532;2023-03-19T04:12:54;3.22;;;2.40;;
56267;SDS011;42175;46.930;9.532;2023-03-19T04:15:19;6.38;;;2.42;;
56267;SDS011;42175;46.930;9.532;2023-03-19T04:17:45;3.85;;;2.53;;
56267;SDS011;42175;46.930;9.532;2023-03-19T04:20:11;3.50;;;2.80;;
56267;SDS011;42175;46.930;9.532;2023-03-19T04:22:38;4.00;;;2.70;;
56267;SDS011;42175;46.930;9.532;2023-03-19T04:25:04;3.80;;;2.85;;
56267;SDS011;42175;46.930;9.532;2023-03-19T04:27:32;3.40;;;2.55;;
56267;SDS011;42175;46.930;9.532;2023-03-19T04:29:58;5.10;;;2.80;;
56267;SDS011;42175;46.930;9.532;2023-03-19T04:32:23;3.25;;;2.28;;
56267;SDS011;42175;46.930;9.532;2023-03-19T04:34:49;2.80;;;2.40;;
56267;SDS011;42175;46.930;9.532;2023-03-19T04:37:15;4.63;;;2.42;;
56267;SDS011;42175;46.930;9.532;2023-03-19T04:39:41;4.38;;;2.58;;
56267;SDS011;42175;46.930;9.532;2023-03-19T04:42:08;3.55;;;2.08;;
56267;SDS011;42175;46.930;9.532;2023-03-19T04:44:35;4.05;;;2.30;;
56267;SDS011;42175;46.930;9.532;2023-03-19T04:47:01;2.88;;;2.45;;
56267;SDS011;42175;46.930;9.532;2023-03-19T04:49:28;3.17;;;2.50;;
56267;SDS011;42175;46.930;9.532;2023-03-19T04:51:55;3.47;;;2.47;;
56267;SDS011;42175;46.930;9.532;2023-03-19T04:54:21;3.65;;;2.42;;
56267;SDS011;42175;46.930;9.532;2023-03-19T04:56:48;4.13;;;2.28;;
56267;SDS011;42175;46.930;9.532;2023-03-19T04:59:15;5.82;;;2.35;;
56267;SDS011;42175;46.930;9.532;2023-03-19T05:01:41;5.60;;;2.13;;
56267;SDS011;42175;46.930;9.532;2023-03-19T05:04:07;4.68;;;2.63;;
56267;SDS011;42175;46.930;9.532;2023-03-19T05:06:33;3.22;;;2.20;;
56267;SDS011;42175;46.930;9.532;2023-03-19T05:09:00;3.97;;;2.25;;
56267;SDS011;42175;46.930;9.532;2023-03-19T05:11:26;3.70;;;2.35;;
56267;SDS011;42175;46.930;9.532;2023-03-19T05:13:52;6.47;;;2.50;;
56267;SDS011;42175;46.930;9.532;2023-03-19T05:16:18;4.00;;;2.40;;
56267;SDS011;42175;46.930;9.532;2023-03-19T05:18:44;3.55;;;2.60;;
56267;SDS011;42175;46.930;9.532;2023-03-19T05:21:10;5.82;;;2.60;;
56267;SDS011;42175;46.930;9.532;2023-03-19T05:23:37;3.28;;;2.20;;
56267;SDS011;42175;46.930;9.532;2023-03-19T05:26:03;3.47;;;2.10;;
56267;SDS011;42175;46.930;9.532;2023-03-19T05:28:28;2.90;;;1.85;;
56267;SDS011;42175;46.930;9.532;2023-03-19T05:30:54;7.32;;;2.58;;
56267;SDS011;42175;46.930;9.532;2023-03-19T05:33:20;2.92;;;2.15;;
56267;SDS011;42175;46.930;9.532;2023-03-19T05:35:47;5.43;;;2.80;;
56267;SDS011;42175;46.930;9.532;2023-03-19T05:38:13;3.55;;;2.35;;
56267;SDS011;42175;46.930;9.532;2023-03-19T05:40:39;4.43;;;2.85;;
56267;SDS011;42175;46.930;9.532;2023-03-19T05:43:06;6.63;;;2.22;;
56267;SDS011;42175;46.930;9.532;2023-03-19T05:45:33;4.88;;;2.40;;
56267;SDS011;42175;46.930;9.532;2023-03-19T05:48:00;3.15;;;2.17;;
56267;SDS011;42175;46.930;9.532;2023-03-19T05:50:27;3.45;;;2.47;;
56267;SDS011;42175;46.930;9.532;2023-03-19T05:52:52;3.33;;;2.20;;
56267;SDS011;42175;46.930;9.532;2023-03-19T05:55:18;5.30;;;2.55;;
56267;SDS011;42175;46.930;9.532;2023-03-19T05:57:44;3.25;;;2.25;;
56267;SDS011;42175;46.930;9.532;2023-03-19T06:00:10;4.90;;;2.15;;
56267;SDS011;42175;46.930;9.532;2023-03-19T06:02:37;5.57;;;3.17;;
56267;SDS011;42175;46.930;9.532;2023-03-19T06:05:03;5.32;;;2.28;;
56267;SDS011;42175;46.930;9.532;2023-03-19T06:07:30;4.47;;;2.25;;
56267;SDS011;42175;46.930;9.532;2023-03-19T06:09:56;3.38;;;2.40;;
56267;SDS011;42175;46.930;9.532;2023-03-19T06:12:22;3.65;;;2.20;;
56267;SDS011;42175;46.930;9.532;2023-03-19T06:14:48;3.35;;;2.50;;
56267;SDS011;42175;46.930;9.532;2023-03-19T06:17:14;3.08;;;2.42;;
56267;SDS011;42175;46.930;9.532;2023-03-19T06:19:40;7.10;;;2.75;;
56267;SDS011;42175;46.930;9.532;2023-03-19T06:22:05;6.32;;;2.55;;
56267;SDS011;42175;46.930;9.532;2023-03-19T06:24:31;4.38;;;2.33;;
56267;SDS011;42175;46.930;9.532;2023-03-19T06:26:58;2.97;;;2.08;;
56267;SDS011;42175;46.930;9.532;2023-03-19T06:29:24;4.68;;;3.03;;
56267;SDS011;42175;46.930;9.532;2023-03-19T06:31:50;3.97;;;2.55;;
56267;SDS011;42175;46.930;9.532;2023-03-19T06:34:16;3.67;;;2.30;;
56267;SDS011;42175;46.930;9.532;2023-03-19T06:36:42;4.00;;;2.30;;
56267;SDS011;42175;46.930;9.532;2023-03-19T06:39:08;7.70;;;2.40;;
56267;SDS011;42175;46.930;9.532;2023-03-19T06:41:34;4.13;;;2.60;;
56267;SDS011;42175;46.930;9.532;2023-03-19T06:44:00;5.75;;;3.08;;
56267;SDS011;42175;46.930;9.532;2023-03-19T06:46:26;5.60;;;2.60;;
56267;SDS011;42175;46.930;9.532;2023-03-19T06:48:51;6.03;;;2.95;;
56267;SDS011;42175;46.930;9.532;2023-03-19T06:51:17;4.53;;;2.53;;
56267;SDS011;42175;46.930;9.532;2023-03-19T06:53:42;4.80;;;2.67;;
56267;SDS011;42175;46.930;9.532;2023-03-19T06:56:08;7.50;;;3.05;;
56267;SDS011;42175;46.930;9.532;2023-03-19T06:58:34;5.22;;;2.80;;
56267;SDS011;42175;46.930;9.532;2023-03-19T07:01:00;12.10;;;2.92;;
56267;SDS011;42175;46.930;9.532;2023-03-19T07:03:26;11.85;;;3.10;;
56267;SDS011;42175;46.930;9.532;2023-03-19T07:05:51;4.03;;;2.80;;
56267;SDS011;42175;46.930;9.532;2023-03-19T07:08:17;5.85;;;3.08;;
56267;SDS011;42175;46.930;9.532;2023-03-19T07:10:43;6.63;;;3.22;;
56267;SDS011;42175;46.930;9.532;2023-03-19T07:13:09;5.22;;;2.80;;
56267;SDS011;42175;46.930;9.532;2023-03-19T07:15:34;7.13;;;3.15;;
56267;SDS011;42175;46.930;9.532;2023-03-19T07:18:00;7.45;;;2.97;;
56267;SDS011;42175;46.930;9.532;2023-03-19T07:20:27;4.55;;;2.53;;
56267;SDS011;42175;46.930;9.532;2023-03-19T07:22:53;6.53;;;2.78;;
56267;SDS011;42175;46.930;9.532;2023-03-19T07:25:18;8.88;;;2.80;;
56267;SDS011;42175;46.930;9.532;2023-03-19T07:27:45;8.00;;;3.03;;
56267;SDS011;42175;46.930;9.532;2023-03-19T07:30:11;11.07;;;3.40;;
56267;SDS011;42175;46.930;9.532;2023-03-19T07:32:37;8.43;;;3.25;;
56267;SDS011;42175;46.930;9.532;2023-03-19T07:35:04;8.55;;;3.33;;
56267;SDS011;42175;46.930;9.532;2023-03-19T07:37:31;16.10;;;4.05;;
56267;SDS011;42175;46.930;9.532;2023-03-19T07:39:57;11.88;;;3.63;;
56267;SDS011;42175;46.930;9.532;2023-03-19T07:42:22;7.07;;;3.20;;
56267;SDS011;42175;46.930;9.532;2023-03-19T07:44:48;11.88;;;3.67;;
56267;SDS011;42175;46.930;9.532;2023-03-19T07:47:14;12.85;;;4.22;;
56267;SDS011;42175;46.930;9.532;2023-03-19T07:49:40;10.38;;;3.80;;
56267;SDS011;42175;46.930;9.532;2023-03-19T07:52:05;8.70;;;4.35;;
56267;SDS011;42175;46.930;9.532;2023-03-19T07:54:31;13.18;;;4.55;;
56267;SDS011;42175;46.930;9.532;2023-03-19T07:56:57;14.30;;;4.47;;
56267;SDS011;42175;46.930;9.532;2023-03-19T07:59:23;14.60;;;5.22;;
56267;SDS011;42175;46.930;9.532;2023-03-19T08:01:48;14.63;;;10.35;;
56267;SDS011;42175;46.930;9.532;2023-03-19T08:04:14;43.60;;;35.92;;
56267;SDS011;42175;46.930;9.532;2023-03-19T08:06:40;38.53;;;31.90;;
56267;SDS011;42175;46.930;9.532;2023-03-19T08:09:06;30.30;;;15.38;;
56267;SDS011;42175;46.930;9.532;2023-03-19T08:11:31;27.73;;;13.82;;
56267;SDS011;42175;46.930;9.532;2023-03-19T08:13:57;15.40;;;9.88;;
56267;SDS011;42175;46.930;9.532;2023-03-19T08:16:23;18.58;;;8.27;;
56267;SDS011;42175;46.930;9.532;2023-03-19T08:18:49;11.23;;;7.68;;
56267;SDS011;42175;46.930;9.532;2023-03-19T08:21:15;11.25;;;6.82;;
56267;SDS011;42175;46.930;9.532;2023-03-19T08:23:41;14.07;;;6.18;;
56267;SDS011;42175;46.930;9.532;2023-03-19T08:26:07;13.38;;;7.10;;
56267;SDS011;42175;46.930;9.532;2023-03-19T08:28:33;10.30;;;6.00;;
56267;SDS011;42175;46.930;9.532;2023-03-19T08:31:12;14.15;;;7.60;;
56267;SDS011;42175;46.930;9.532;2023-03-19T08:33:38;15.93;;;6.90;;
56267;SDS011;42175;46.930;9.532;2023-03-19T08:36:11;9.75;;;5.68;;
56267;SDS011;42175;46.930;9.532;2023-03-19T08:38:38;13.43;;;6.13;;
56267;SDS011;42175;46.930;9.532;2023-03-19T08:41:05;15.25;;;6.03;;
56267;SDS011;42175;46.930;9.532;2023-03-19T08:43:32;14.02;;;5.03;;
56267;SDS011;42175;46.930;9.532;2023-03-19T08:45:59;8.98;;;4.80;;
56267;SDS011;42175;46.930;9.532;2023-03-19T08:48:25;16.15;;;5.00;;
56267;SDS011;42175;46.930;9.532;2023-03-19T08:50:58;12.00;;;4.28;;
56267;SDS011;42175;46.930;9.532;2023-03-19T08:53:26;11.07;;;4.18;;
56267;SDS011;42175;46.930;9.532;2023-03-19T08:55:56;14.60;;;3.95;;
56267;SDS011;42175;46.930;9.532;2023-03-19T08:58:26;9.20;;;4.72;;
56267;SDS011;42175;46.930;9.532;2023-03-19T09:00:52;7.82;;;3.72;;
56267;SDS011;42175;46.930;9.532;2023-03-19T09:03:24;8.88;;;4.10;;
56267;SDS011;42175;46.930;9.532;2023-03-19T09:05:50;9.95;;;3.72;;
56267;SDS011;42175;46.930;9.532;2023-03-19T09:08:15;8.85;;;3.20;;
56267;SDS011;42175;46.930;9.532;2023-03-19T09:10:41;6.82;;;3.67;;
56267;SDS011;42175;46.930;9.532;2023-03-19T09:13:06;8.45;;;3.47;;
56267;SDS011;42175;46.930;9.532;2023-03-19T09:15:32;7.90;;;3.50;;
56267;SDS011;42175;46.930;9.532;2023-03-19T09:17:58;7.28;;;3.20;;
56267;SDS011;42175;46.930;9.532;2023-03-19T09:20:23;6.03;;;2.88;;
56267;SDS011;42175;46.930;9.532;2023-03-19T09:22:49;8.68;;;3.35;;
56267;SDS011;42175;46.930;9.532;2023-03-19T09:25:15;10.70;;;3.00;;
56267;SDS011;42175;46.930;9.532;2023-03-19T09:27:41;9.93;;;3.80;;
56267;SDS011;42175;46.930;9.532;2023-03-19T09:30:06;11.80;;;3.47;;
56267;SDS011;42175;46.930;9.532;2023-03-19T09:32:35;5.82;;;3.00;;
56267;SDS011;42175;46.930;9.532;2023-03-19T09:35:01;11.80;;;3.95;;
56267;SDS011;42175;46.930;9.532;2023-03-19T09:37:27;7.85;;;3.15;;
56267;SDS011;42175;46.930;9.532;2023-03-19T09:39:52;8.80;;;3.05;;
56267;SDS011;42175;46.930;9.532;2023-03-19T09:42:28;6.18;;;2.95;;
56267;SDS011;42175;46.930;9.532;2023-03-19T09:45:13;5.57;;;3.00;;
56267;SDS011;42175;46.930;9.532;2023-03-19T09:47:40;7.15;;;2.92;;
56267;SDS011;42175;46.930;9.532;2023-03-19T09:52:49;7.57;;;2.65;;
56267;SDS011;42175;46.930;9.532;2023-03-19T09:57:48;5.47;;;2.90;;
56267;SDS011;42175;46.930;9.532;2023-03-19T10:17:05;5.13;;;2.50;;
56267;SDS011;42175;46.930;9.532;2023-03-19T10:19:38;6.18;;;3.25;;
56267;SDS011;42175;46.930;9.532;2023-03-19T10:22:13;5.18;;;2.63;;
56267;SDS011;42175;46.930;9.532;2023-03-19T10:24:43;8.35;;;3.55;;
56267;SDS011;42175;46.930;9.532;2023-03-19T10:27:14;9.40;;;2.58;;
56267;SDS011;42175;46.930;9.532;2023-03-19T10:29:41;8.95;;;2.80;;
56267;SDS011;42175;46.930;9.532;2023-03-19T10:34:47;5.43;;;2.42;;
56267;SDS011;42175;46.930;9.532;2023-03-19T10:37:25;7.50;;;3.10;;
56267;SDS011;42175;46.930;9.532;2023-03-19T10:39:56;5.15;;;2.47;;
56267;SDS011;42175;46.930;9.532;2023-03-19T10:47:38;8.88;;;2.80;;
56267;SDS011;42175;46.930;9.532;2023-03-19T10:50:06;4.68;;;2.40;;
56267;SDS011;42175;46.930;9.532;2023-03-19T10:52:38;5.80;;;2.90;;
56267;SDS011;42175;46.930;9.532;2023-03-19T10:55:14;8.07;;;2.97;;
56267;SDS011;42175;46.930;9.532;2023-03-19T10:57:42;5.75;;;2.50;;
56267;SDS011;42175;46.930;9.532;2023-03-19T11:00:23;6.28;;;2.60;;
56267;SDS011;42175;46.930;9.532;2023-03-19T11:02:51;6.78;;;3.28;;
56267;SDS011;42175;46.930;9.532;2023-03-19T11:05:25;7.93;;;2.55;;
56267;SDS011;42175;46.930;9.532;2023-03-19T11:07:56;8.50;;;2.28;;
56267;SDS011;42175;46.930;9.532;2023-03-19T11:10:27;6.93;;;2.78;;
56267;SDS011;42175;46.930;9.532;2023-03-19T11:12:57;7.25;;;2.58;;
56267;SDS011;42175;46.930;9.532;2023-03-19T11:15:36;4.63;;;2.47;;
56267;SDS011;42175;46.930;9.532;2023-03-19T11:18:22;8.90;;;3.38;;
56267;SDS011;42175;46.930;9.532;2023-03-19T11:20:56;6.90;;;2.45;;
56267;SDS011;42175;46.930;9.532;2023-03-19T11:23:26;7.30;;;3.83;;
56267;SDS011;42175;46.930;9.532;2023-03-19T11:26:01;16.48;;;3.63;;
56267;SDS011;42175;46.930;9.532;2023-03-19T11:28:28;10.07;;;3.00;;
56267;SDS011;42175;46.930;9.532;2023-03-19T11:31:04;13.80;;;4.03;;
56267;SDS011;42175;46.930;9.532;2023-03-19T11:39:36;12.15;;;4.57;;
56267;SDS011;42175;46.930;9.532;2023-03-19T12:01:21;10.23;;;4.57;;
56267;SDS011;42175;46.930;9.532;2023-03-19T12:23:26;11.93;;;3.90;;
56267;SDS011;42175;46.930;9.532;2023-03-19T12:29:22;7.03;;;3.00;;
56267;SDS011;42175;46.930;9.532;2023-03-19T12:34:39;5.78;;;2.95;;
56267;SDS011;42175;46.930;9.532;2023-03-19T12:45:07;6.35;;;2.78;;
56267;SDS011;42175;46.930;9.532;2023-03-19T12:47:45;8.70;;;2.80;;
56267;SDS011;42175;46.930;9.532;2023-03-19T12:50:12;7.60;;;3.42;;
56267;SDS011;42175;46.930;9.532;2023-03-19T12:52:45;7.05;;;3.05;;
56267;SDS011;42175;46.930;9.532;2023-03-19T13:00:49;6.57;;;2.92;;
56267;SDS011;42175;46.930;9.532;2023-03-19T13:03:27;79.88;;;5.35;;
56267;SDS011;42175;46.930;9.532;2023-03-19T13:10:59;9.18;;;2.75;;
56267;SDS011;42175;46.930;9.532;2023-03-19T13:13:38;6.97;;;3.45;;
56267;SDS011;42175;46.930;9.532;2023-03-19T13:19:12;11.98;;;3.05;;
56267;SDS011;42175;46.930;9.532;2023-03-19T13:21:42;6.03;;;3.15;;
56267;SDS011;42175;46.930;9.532;2023-03-19T13:24:17;8.30;;;2.97;;
56267;SDS011;42175;46.930;9.532;2023-03-19T13:26:52;7.18;;;2.78;;
56267;SDS011;42175;46.930;9.532;2023-03-19T13:29:23;5.78;;;2.60;;
56267;SDS011;42175;46.930;9.532;2023-03-19T13:32:00;5.50;;;3.03;;
56267;SDS011;42175;46.930;9.532;2023-03-19T13:34:33;8.25;;;3.00;;
56267;SDS011;42175;46.930;9.532;2023-03-19T13:37:06;8.45;;;3.33;;
56267;SDS011;42175;46.930;9.532;2023-03-19T13:39:41;5.68;;;2.55;;
56267;SDS011;42175;46.930;9.532;2023-03-19T13:42:10;5.53;;;2.90;;
56267;SDS011;42175;46.930;9.532;2023-03-19T13:45:28;8.40;;;2.78;;
56267;SDS011;42175;46.930;9.532;2023-03-19T13:48:10;5.20;;;2.70;;
56267;SDS011;42175;46.930;9.532;2023-03-19T13:50:59;4.40;;;2.90;;
56267;SDS011;42175;46.930;9.532;2023-03-19T13:55:53;7.35;;;2.92;;
56267;SDS011;42175;46.930;9.532;2023-03-19T13:58:27;4.25;;;2.67;;
56267;SDS011;42175;46.930;9.532;2023-03-19T14:04:01;5.18;;;2.60;;
56267;SDS011;42175;46.930;9.532;2023-03-19T14:06:29;6.35;;;2.95;;
56267;SDS011;42175;46.930;9.532;2023-03-19T14:11:54;6.25;;;2.90;;
56267;SDS011;42175;46.930;9.532;2023-03-19T14:14:32;4.45;;;2.70;;
56267;SDS011;42175;46.930;9.532;2023-03-19T14:16:58;19.15;;;3.15;;
56267;SDS011;42175;46.930;9.532;2023-03-19T14:19:24;6.22;;;2.95;;
56267;SDS011;42175;46.930;9.532;2023-03-19T14:24:20;5.05;;;2.95;;
56267;SDS011;42175;46.930;9.532;2023-03-19T14:26:57;7.28;;;2.55;;
56267;SDS011;42175;46.930;9.532;2023-03-19T14:29:28;7.13;;;2.80;;
56267;SDS011;42175;46.930;9.532;2023-03-19T14:31:58;4.50;;;2.60;;
56267;SDS011;42175;46.930;9.532;2023-03-19T14:34:33;7.05;;;2.90;;
56267;SDS011;42175;46.930;9.532;2023-03-19T14:40:08;4.90;;;3.13;;
56267;SDS011;42175;46.930;9.532;2023-03-19T14:55:54;8.63;;;3.20;;
56267;SDS011;42175;46.930;9.532;2023-03-19T14:58:20;6.85;;;3.08;;
56267;SDS011;42175;46.930;9.532;2023-03-19T15:00:48;7.00;;;2.90;;
56267;SDS011;42175;46.930;9.532;2023-03-19T15:03:19;5.82;;;2.72;;
56267;SDS011;42175;46.930;9.532;2023-03-19T15:05:54;9.27;;;2.97;;
56267;SDS011;42175;46.930;9.532;2023-03-19T15:08:25;7.78;;;3.08;;
56267;SDS011;42175;46.930;9.532;2023-03-19T15:11:03;5.20;;;2.85;;
56267;SDS011;42175;46.930;9.532;2023-03-19T15:19:11;8.63;;;2.97;;
56267;SDS011;42175;46.930;9.532;2023-03-19T15:21:37;5.40;;;2.83;;
56267;SDS011;42175;46.930;9.532;2023-03-19T15:24:04;9.57;;;3.00;;
56267;SDS011;42175;46.930;9.532;2023-03-19T15:26:32;7.70;;;2.95;;
56267;SDS011;42175;46.930;9.532;2023-03-19T15:29:00;10.27;;;2.90;;
56267;SDS011;42175;46.930;9.532;2023-03-19T15:34:18;5.68;;;3.05;;
56267;SDS011;42175;46.930;9.532;2023-03-19T15:36:55;9.77;;;3.38;;
56267;SDS011;42175;46.930;9.532;2023-03-19T15:39:22;11.93;;;2.50;;
56267;SDS011;42175;46.930;9.532;2023-03-19T15:41:51;6.88;;;2.63;;
56267;SDS011;42175;46.930;9.532;2023-03-19T15:44:23;13.30;;;2.72;;
56267;SDS011;42175;46.930;9.532;2023-03-19T15:46:51;8.82;;;2.40;;
56267;SDS011;42175;46.930;9.532;2023-03-19T15:49:25;13.57;;;3.00;;
56267;SDS011;42175;46.930;9.532;2023-03-19T15:52:01;8.57;;;3.05;;
56267;SDS011;42175;46.930;9.532;2023-03-19T15:54:29;7.95;;;2.63;;
56267;SDS011;42175;46.930;9.532;2023-03-19T15:56:57;13.07;;;2.78;;
56267;SDS011;42175;46.930;9.532;2023-03-19T15:59:22;10.13;;;2.60;;
56267;SDS011;42175;46.930;9.532;2023-03-19T16:02:07;5.50;;;2.55;;
56267;SDS011;42175;46.930;9.532;2023-03-19T16:04:43;6.30;;;2.17;;
56267;SDS011;42175;46.930;9.532;2023-03-19T16:12:57;4.53;;;2.40;;
56267;SDS011;42175;46.930;9.532;2023-03-19T16:15:43;5.18;;;2.28;;
56267;SDS011;42175;46.930;9.532;2023-03-19T16:20:44;6.60;;;2.55;;
56267;SDS011;42175;46.930;9.532;2023-03-19T16:23:30;5.55;;;2.70;;
56267;SDS011;42175;46.930;9.532;2023-03-19T16:31:43;9.05;;;2.60;;
56267;SDS011;42175;46.930;9.532;2023-03-19T16:34:22;5.10;;;2.30;;
56267;SDS011;42175;46.930;9.532;2023-03-19T16:36:58;4.38;;;2.47;;
56267;SDS011;42175;46.930;9.532;2023-03-19T16:44:40;5.85;;;2.75;;
56267;SDS011;42175;46.930;9.532;2023-03-19T16:47:09;6.20;;;3.30;;
56267;SDS011;42175;46.930;9.532;2023-03-19T16:49:35;8.27;;;3.22;;
56267;SDS011;42175;46.930;9.532;2023-03-19T16:52:01;8.15;;;3.17;;
56267;SDS011;42175;46.930;9.532;2023-03-19T16:54:28;10.55;;;3.90;;
56267;SDS011;42175;46.930;9.532;2023-03-19T16:56:53;12.50;;;3.88;;
56267;SDS011;42175;46.930;9.532;2023-03-19T16:59:20;7.45;;;2.90;;
56267;SDS011;42175;46.930;9.532;2023-03-19T17:01:51;5.55;;;2.70;;
56267;SDS011;42175;46.930;9.532;2023-03-19T17:04:16;7.72;;;3.17;;
56267;SDS011;42175;46.930;9.532;2023-03-19T17:06:43;8.80;;;3.38;;
56267;SDS011;42175;46.930;9.532;2023-03-19T17:09:09;7.07;;;3.58;;
56267;SDS011;42175;46.930;9.532;2023-03-19T17:11:36;8.05;;;3.42;;
56267;SDS011;42175;46.930;9.532;2023-03-19T17:14:05;5.00;;;2.92;;
56267;SDS011;42175;46.930;9.532;2023-03-19T17:16:37;6.28;;;3.17;;
56267;SDS011;42175;46.930;9.532;2023-03-19T17:19:04;9.20;;;3.83;;
56267;SDS011;42175;46.930;9.532;2023-03-19T17:21:34;5.65;;;3.63;;
56267;SDS011;42175;46.930;9.532;2023-03-19T17:24:02;7.35;;;3.45;;
56267;SDS011;42175;46.930;9.532;2023-03-19T17:26:39;6.55;;;3.17;;
56267;SDS011;42175;46.930;9.532;2023-03-19T17:29:04;7.80;;;4.10;;
56267;SDS011;42175;46.930;9.532;2023-03-19T17:31:30;9.10;;;3.05;;